createdAt,value
2023-02-27T00:01:00.212Z,100.00
2023-02-27T00:03:28.568Z,100.00
2023-02-27T00:05:57.281Z,100.00
2023-02-27T00:08:25.509Z,100.00
2023-02-27T00:10:53.155Z,100.00
2023-02-27T00:13:20.950Z,100.00
2023-02-27T00:15:51.116Z,100.00
2023-02-27T00:18:18.881Z,100.00
2023-02-27T00:20:46.593Z,100.00
2023-02-27T00:23:15.759Z,100.00
2023-02-27T00:25:43.504Z,100.00
2023-02-27T00:28:11.216Z,100.00
2023-02-27T00:30:38.983Z,100.00
2023-02-27T00:33:08.974Z,100.00
2023-02-27T00:35:36.758Z,100.00
2023-02-27T00:38:04.547Z,100.00
2023-02-27T00:40:32.290Z,100.00
2023-02-27T00:43:00.179Z,100.00
2023-02-27T00:45:27.857Z,100.00
2023-02-27T00:47:55.554Z,100.00
2023-02-27T00:50:24.604Z,100.00
2023-02-27T00:52:52.263Z,100.00
2023-02-27T00:55:19.969Z,100.00
2023-02-27T00:57:47.701Z,100.00
2023-02-27T01:00:15.925Z,100.00
2023-02-27T01:02:43.654Z,100.00
2023-02-27T01:05:11.500Z,100.00
2023-02-27T01:07:40.596Z,100.00
2023-02-27T01:10:10.006Z,100.00
2023-02-27T01:12:37.741Z,100.00
2023-02-27T01:15:06.296Z,100.00
2023-02-27T01:17:34.273Z,100.00
2023-02-27T01:20:01.923Z,100.00
2023-02-27T01:22:29.539Z,100.00
2023-02-27T01:24:58.599Z,100.00
2023-02-27T01:27:26.354Z,100.00
2023-02-27T01:29:53.987Z,100.00
2023-02-27T01:32:21.821Z,100.00
2023-02-27T01:34:49.594Z,100.00
2023-02-27T01:37:17.217Z,100.00
2023-02-27T01:39:45.100Z,100.00
2023-02-27T01:42:20.608Z,100.00
2023-02-27T01:45:19.819Z,100.00
2023-02-27T01:47:51.275Z,100.00
2023-02-27T01:50:19.844Z,100.00
2023-02-27T01:52:52.805Z,100.00
2023-02-27T01:55:20.803Z,100.00
2023-02-27T01:57:50.673Z,100.00
2023-02-27T02:00:19.060Z,100.00
2023-02-27T02:02:53.124Z,100.00
2023-02-27T02:05:22.216Z,100.00
2023-02-27T02:07:50.405Z,100.00
2023-02-27T02:10:19.456Z,100.00
2023-02-27T02:12:49.747Z,100.00
2023-02-27T02:15:17.960Z,100.00
2023-02-27T02:18:01.877Z,100.00
2023-02-27T02:20:53.688Z,100.00
2023-02-27T02:23:57.945Z,100.00
2023-02-27T02:26:33.571Z,100.00
2023-02-27T02:29:40.164Z,100.00
2023-02-27T02:32:48.540Z,100.00
2023-02-27T02:35:45.917Z,100.00
2023-02-27T02:39:01.304Z,100.00
2023-02-27T02:41:38.305Z,100.00
2023-02-27T02:44:09.569Z,100.00
2023-02-27T02:46:43.289Z,100.00
2023-02-27T02:49:15.601Z,100.00
2023-02-27T02:51:49.716Z,100.00
2023-02-27T02:54:21.364Z,100.00
2023-02-27T02:56:52.523Z,100.00
2023-02-27T02:59:25.965Z,100.00
2023-02-27T03:01:55.092Z,100.00
2023-02-27T03:04:27.920Z,100.00
2023-02-27T03:06:59.317Z,100.00
2023-02-27T03:09:32.649Z,100.00
2023-02-27T03:12:04.663Z,100.00
2023-02-27T03:14:35.862Z,100.00
2023-02-27T03:17:08.006Z,100.00
2023-02-27T03:19:40.452Z,100.00
2023-02-27T03:22:11.191Z,100.00
2023-02-27T03:24:41.383Z,100.00
2023-02-27T03:27:11.036Z,100.00
2023-02-27T03:29:43.234Z,100.00
2023-02-27T03:32:15.665Z,100.00
2023-02-27T03:34:44.377Z,100.00
2023-02-27T03:37:21.021Z,100.00
2023-02-27T03:39:50.380Z,100.00
2023-02-27T03:42:25.798Z,100.00
2023-02-27T03:44:58.026Z,100.00
2023-02-27T03:47:25.719Z,100.00
2023-02-27T03:49:53.601Z,100.00
2023-02-27T03:52:22.458Z,100.00
2023-02-27T03:54:54.354Z,100.00
2023-02-27T03:57:23.571Z,100.00
2023-02-27T03:59:53.338Z,100.00
2023-02-27T04:02:22.361Z,100.00
2023-02-27T04:04:50.024Z,100.00
2023-02-27T04:07:24.650Z,100.00
2023-02-27T04:10:14.985Z,100.00
2023-02-27T04:13:06.825Z,100.00
2023-02-27T04:15:42.263Z,100.00
2023-02-27T04:18:18.801Z,100.00
2023-02-27T04:20:49.835Z,100.00
2023-02-27T04:23:21.157Z,100.00
2023-02-27T04:25:55.248Z,100.00
2023-02-27T04:28:27.130Z,100.00
2023-02-27T04:31:05.650Z,100.00
2023-02-27T04:33:41.856Z,100.00
2023-02-27T04:36:13.249Z,100.00
2023-02-27T04:38:45.410Z,100.00
2023-02-27T04:41:15.322Z,100.00
2023-02-27T04:47:09.867Z,100.00
2023-02-27T04:49:39.528Z,100.00
2023-02-27T04:52:10.816Z,100.00
2023-02-27T04:54:42.022Z,100.00
2023-02-27T04:57:12.796Z,100.00
2023-02-27T04:59:45.627Z,100.00
2023-02-27T05:02:16.017Z,100.00
2023-02-27T05:04:45.027Z,100.00
2023-02-27T05:07:15.848Z,100.00
2023-02-27T05:09:45.814Z,100.00
2023-02-27T05:12:18.076Z,100.00
2023-02-27T05:14:51.008Z,100.00
2023-02-27T05:17:20.932Z,100.00
2023-02-27T05:19:48.757Z,100.00
2023-02-27T05:22:24.388Z,100.00
2023-02-27T05:24:55.766Z,100.00
2023-02-27T05:27:28.346Z,100.00
2023-02-27T05:30:00.290Z,100.00
2023-02-27T05:32:35.122Z,100.00
2023-02-27T05:35:08.448Z,100.00
2023-02-27T05:37:39.730Z,100.00
2023-02-27T05:40:10.016Z,100.00
2023-02-27T05:42:40.959Z,100.00
2023-02-27T05:45:12.374Z,100.00
2023-02-27T05:47:42.819Z,100.00
2023-02-27T05:50:12.200Z,100.00
2023-02-27T05:52:41.601Z,100.00
2023-02-27T05:55:13.824Z,100.00
2023-02-27T05:57:45.472Z,100.00
2023-02-27T06:00:18.088Z,100.00
2023-02-27T06:02:46.182Z,100.00
2023-02-27T06:05:15.947Z,100.00
2023-02-27T06:07:43.610Z,100.00
2023-02-27T06:10:13.839Z,100.00
2023-02-27T06:12:42.312Z,100.00
2023-02-27T06:15:10.956Z,100.00
2023-02-27T06:17:40.238Z,100.00
2023-02-27T06:20:09.213Z,100.00
2023-02-27T06:22:36.997Z,100.00
2023-02-27T06:25:04.995Z,100.00
2023-02-27T06:27:32.725Z,100.00
2023-02-27T06:30:00.368Z,100.00
2023-02-27T06:32:28.122Z,100.00
2023-02-27T06:34:57.240Z,100.00
2023-02-27T06:37:25.205Z,100.00
2023-02-27T06:39:53.023Z,100.00
2023-02-27T06:42:20.694Z,100.00
2023-02-27T06:44:48.351Z,100.00
2023-02-27T06:47:16.074Z,100.00
2023-02-27T06:49:43.799Z,100.00
2023-02-27T06:52:12.877Z,100.00
2023-02-27T06:54:40.565Z,100.00
2023-02-27T06:57:08.201Z,100.00
2023-02-27T06:59:35.858Z,100.00
2023-02-27T07:02:03.551Z,100.00
2023-02-27T07:04:31.261Z,100.00
2023-02-27T07:07:35.710Z,100.00
2023-02-27T07:09:49.192Z,100.00
2023-02-27T07:12:16.850Z,100.00
2023-02-27T07:14:44.540Z,100.00
2023-02-27T07:17:12.199Z,100.00
2023-02-27T07:19:39.846Z,100.00
2023-02-27T07:22:09.280Z,100.00
2023-02-27T07:24:37.378Z,100.00
2023-02-27T07:27:06.388Z,100.00
2023-02-27T07:29:36.003Z,100.00
2023-02-27T07:32:03.808Z,100.00
2023-02-27T07:34:31.494Z,100.00
2023-02-27T07:36:59.152Z,100.00
2023-02-27T07:39:26.869Z,100.00
2023-02-27T07:41:54.749Z,100.00
2023-02-27T07:44:23.842Z,100.00
2023-02-27T07:46:51.596Z,100.00
2023-02-27T07:49:19.357Z,100.00
2023-02-27T07:51:46.993Z,100.00
2023-02-27T07:54:14.712Z,100.00
2023-02-27T07:56:42.357Z,100.00
2023-02-27T07:59:10.183Z,100.00
2023-02-27T08:01:39.235Z,100.00
2023-02-27T08:04:06.960Z,100.00
2023-02-27T08:06:34.668Z,100.00
2023-02-27T08:09:02.432Z,100.00
2023-02-27T08:11:30.220Z,100.00
2023-02-27T08:14:01.007Z,100.00
2023-02-27T08:16:30.771Z,100.00
2023-02-27T08:19:00.649Z,100.00
2023-02-27T08:21:29.020Z,100.00
2023-02-27T08:23:57.084Z,100.00
2023-02-27T08:26:24.875Z,100.00
2023-02-27T08:28:52.833Z,100.00
2023-02-27T08:31:20.533Z,100.00
2023-02-27T08:33:49.620Z,100.00
2023-02-27T08:36:22.223Z,100.00
2023-02-27T08:38:49.899Z,100.00
2023-02-27T08:41:17.819Z,100.00
2023-02-27T08:43:45.561Z,100.00
2023-02-27T08:46:13.475Z,100.00
2023-02-27T08:48:42.671Z,100.00
2023-02-27T08:51:10.656Z,100.00
2023-02-27T08:53:39.749Z,100.00
2023-02-27T08:56:07.961Z,100.00
2023-02-27T08:58:35.937Z,100.00
2023-02-27T09:01:03.950Z,100.00
2023-02-27T09:03:31.672Z,100.00
2023-02-27T09:05:59.660Z,100.00
2023-02-27T09:08:27.372Z,97.57
2023-02-27T09:10:58.394Z,96.36
2023-02-27T09:13:26.782Z,100.00
2023-02-27T09:15:54.847Z,100.00
2023-02-27T09:18:22.733Z,100.00
2023-02-27T09:20:51.084Z,100.00
2023-02-27T09:23:19.304Z,100.00
2023-02-27T09:25:48.457Z,100.00
2023-02-27T09:28:17.632Z,100.00
2023-02-27T09:30:45.398Z,100.00
2023-02-27T09:33:14.889Z,100.00
2023-02-27T09:35:42.773Z,100.00
2023-02-27T09:38:10.555Z,99.53
2023-02-27T09:40:40.865Z,100.00
2023-02-27T09:43:14.228Z,99.18
2023-02-27T09:45:44.638Z,100.00
2023-02-27T09:48:27.648Z,100.00
2023-02-27T09:50:55.431Z,100.00
2023-02-27T09:53:26.892Z,100.00
2023-02-27T09:55:55.740Z,100.00
2023-02-27T09:58:44.903Z,96.48
2023-02-27T10:01:20.777Z,96.80
2023-02-27T10:03:59.216Z,97.61
2023-02-27T10:06:28.872Z,95.61
2023-02-27T10:09:06.052Z,95.84
2023-02-27T10:11:40.268Z,94.99
2023-02-27T10:14:16.944Z,93.69
2023-02-27T10:16:47.596Z,98.13
2023-02-27T10:19:17.430Z,95.81
2023-02-27T10:21:48.055Z,92.05
2023-02-27T10:24:23.796Z,90.46
2023-02-27T10:26:52.881Z,94.77
2023-02-27T10:29:26.255Z,81.51
2023-02-27T10:32:00.701Z,79.43
2023-02-27T10:34:29.063Z,76.72
2023-02-27T10:36:57.853Z,76.28
2023-02-27T10:39:25.872Z,67.15
2023-02-27T10:41:53.631Z,67.25
2023-02-27T10:44:21.330Z,68.51
2023-02-27T10:46:51.802Z,71.25
2023-02-27T10:49:23.056Z,75.68
2023-02-27T10:52:08.590Z,78.16
2023-02-27T10:54:37.012Z,76.90
2023-02-27T10:57:08.337Z,73.16
2023-02-27T10:59:38.083Z,76.55
2023-02-27T11:02:08.136Z,74.48
2023-02-27T11:04:40.089Z,70.76
2023-02-27T11:07:10.386Z,70.50
2023-02-27T11:09:38.757Z,58.91
2023-02-27T11:12:19.644Z,56.86
2023-02-27T11:14:52.493Z,55.16
2023-02-27T11:17:26.699Z,56.15
2023-02-27T11:19:56.228Z,54.71
2023-02-27T11:22:25.556Z,55.89
2023-02-27T11:24:54.804Z,55.76
2023-02-27T11:27:26.505Z,54.33
2023-02-27T11:29:58.980Z,57.85
2023-02-27T11:32:27.989Z,56.90
2023-02-27T11:34:57.212Z,60.90
2023-02-27T11:37:28.469Z,61.21
2023-02-27T11:40:04.703Z,63.26
2023-02-27T11:42:33.827Z,60.88
2023-02-27T11:45:04.958Z,60.86
2023-02-27T11:47:34.924Z,63.92
2023-02-27T11:50:25.251Z,64.68
2023-02-27T11:52:55.223Z,63.83
2023-02-27T11:55:24.700Z,61.59
2023-02-27T11:57:56.489Z,60.72
2023-02-27T12:00:28.354Z,59.56
2023-02-27T12:03:00.815Z,58.33
2023-02-27T12:05:32.224Z,59.71
2023-02-27T12:08:05.682Z,57.30
2023-02-27T12:10:38.640Z,55.88
2023-02-27T12:13:12.336Z,56.96
2023-02-27T12:15:45.989Z,58.48
2023-02-27T12:18:18.277Z,59.80
2023-02-27T12:20:52.142Z,58.81
2023-02-27T12:23:24.677Z,58.45
2023-02-27T12:25:54.032Z,57.90
2023-02-27T12:28:30.431Z,57.47
2023-02-27T12:31:07.590Z,57.42
2023-02-27T12:33:40.128Z,56.96
2023-02-27T12:36:13.791Z,56.38
2023-02-27T12:38:41.539Z,54.61
2023-02-27T12:41:27.653Z,52.83
2023-02-27T12:44:05.388Z,51.12
2023-02-27T12:46:39.587Z,51.42
2023-02-27T12:49:17.976Z,51.00
2023-02-27T12:51:52.310Z,50.35
2023-02-27T12:54:40.261Z,49.31
2023-02-27T12:57:20.158Z,48.59
2023-02-27T12:59:59.237Z,51.80
2023-02-27T13:02:49.382Z,53.40
2023-02-27T13:05:32.358Z,53.80
2023-02-27T13:08:08.404Z,53.03
2023-02-27T13:10:38.001Z,51.37
2023-02-27T13:13:11.786Z,49.26
2023-02-27T13:15:42.373Z,49.76
2023-02-27T13:18:27.672Z,50.60
2023-02-27T13:20:58.368Z,50.87
2023-02-27T13:23:32.300Z,49.56
2023-02-27T13:26:00.948Z,49.53
2023-02-27T13:28:30.022Z,49.15
2023-02-27T13:31:02.517Z,49.48
2023-02-27T13:33:33.940Z,47.59
2023-02-27T13:36:07.172Z,49.20
2023-02-27T13:38:43.619Z,50.08
2023-02-27T13:41:48.126Z,50.24
2023-02-27T13:44:52.090Z,49.76
2023-02-27T13:47:43.502Z,48.37
2023-02-27T13:50:54.338Z,48.79
2023-02-27T13:53:24.493Z,50.50
2023-02-27T13:56:00.158Z,49.24
2023-02-27T13:58:27.941Z,50.67
2023-02-27T14:01:01.402Z,51.45
2023-02-27T14:03:32.060Z,51.64
2023-02-27T14:06:04.080Z,51.46
2023-02-27T14:08:35.363Z,51.93
2023-02-27T14:11:17.165Z,52.51
2023-02-27T14:14:06.629Z,52.56
2023-02-27T14:16:54.727Z,52.86
2023-02-27T14:19:51.440Z,53.07
2023-02-27T14:22:40.336Z,53.49
2023-02-27T14:25:18.897Z,53.28
2023-02-27T14:27:51.487Z,52.77
2023-02-27T14:30:34.695Z,52.41
2023-02-27T14:33:11.254Z,51.46
2023-02-27T14:35:39.361Z,51.87
2023-02-27T14:38:11.134Z,51.68
2023-02-27T14:40:44.698Z,52.74
2023-02-27T14:43:21.187Z,52.78
2023-02-27T14:45:49.304Z,51.46
2023-02-27T14:48:25.084Z,51.46
2023-02-27T14:50:54.100Z,50.98
2023-02-27T14:53:27.412Z,51.23
2023-02-27T14:55:56.848Z,51.16
2023-02-27T14:58:26.420Z,50.76
2023-02-27T15:02:22.763Z,51.13
2023-02-27T15:04:54.198Z,50.33
2023-02-27T15:07:24.754Z,50.57
2023-02-27T15:09:55.304Z,50.35
2023-02-27T15:12:23.845Z,50.81
2023-02-27T15:14:53.345Z,50.99
2023-02-27T15:17:23.873Z,50.88
2023-02-27T15:19:53.189Z,51.68
2023-02-27T15:22:37.536Z,51.30
2023-02-27T15:25:07.994Z,50.77
2023-02-27T15:27:37.439Z,50.11
2023-02-27T15:30:06.462Z,50.48
2023-02-27T15:32:37.454Z,51.33
2023-02-27T15:35:07.994Z,50.67
2023-02-27T15:37:35.765Z,50.15
2023-02-27T15:40:05.903Z,49.79
2023-02-27T15:42:36.508Z,49.52
2023-02-27T15:45:06.351Z,49.36
2023-02-27T15:47:36.377Z,49.22
2023-02-27T15:50:08.649Z,50.19
2023-02-27T15:52:42.406Z,50.45
2023-02-27T15:55:15.901Z,50.24
2023-02-27T15:57:56.477Z,51.74
2023-02-27T16:00:31.438Z,53.13
2023-02-27T16:03:00.929Z,53.85
2023-02-27T16:05:31.941Z,54.33
2023-02-27T16:07:59.626Z,55.14
2023-02-27T16:10:29.556Z,55.57
2023-02-27T16:12:57.293Z,56.33
2023-02-27T16:15:28.819Z,55.16
2023-02-27T16:18:00.210Z,54.98
2023-02-27T16:20:34.519Z,56.80
2023-02-27T16:23:02.798Z,57.08
2023-02-27T16:25:30.640Z,56.96
2023-02-27T16:27:58.468Z,57.22
2023-02-27T16:30:26.224Z,57.74
2023-02-27T16:33:01.098Z,58.92
2023-02-27T16:35:29.845Z,60.19
2023-02-27T16:38:01.853Z,59.50
2023-02-27T16:40:30.176Z,59.63
2023-02-27T16:42:58.185Z,59.36
2023-02-27T16:45:27.262Z,59.00
2023-02-27T16:47:56.281Z,59.66
2023-02-27T16:50:29.297Z,61.21
2023-02-27T16:52:57.444Z,60.89
2023-02-27T16:55:25.376Z,63.05
2023-02-27T16:57:53.451Z,62.09
2023-02-27T17:00:22.618Z,63.93
2023-02-27T17:02:51.100Z,63.97
2023-02-27T17:05:19.448Z,64.79
2023-02-27T17:07:48.701Z,66.88
2023-02-27T17:10:17.899Z,66.79
2023-02-27T17:12:46.933Z,67.31
2023-02-27T17:15:15.031Z,67.42
2023-02-27T17:17:42.906Z,69.42
2023-02-27T17:20:12.356Z,70.13
2023-02-27T17:22:41.973Z,71.98
2023-02-27T17:25:12.299Z,73.37
2023-02-27T17:27:40.252Z,75.22
2023-02-27T17:30:09.636Z,74.65
2023-02-27T17:32:37.312Z,75.44
2023-02-27T17:35:05.742Z,75.98
2023-02-27T17:37:33.457Z,77.80
2023-02-27T17:40:04.114Z,77.97
2023-02-27T17:42:33.280Z,78.27
2023-02-27T17:45:01.432Z,78.45
2023-02-27T17:47:29.136Z,79.12
2023-02-27T17:49:56.871Z,77.69
2023-02-27T17:52:24.582Z,78.33
2023-02-27T17:54:52.441Z,79.50
2023-02-27T17:57:20.120Z,79.33
2023-02-27T17:59:49.173Z,78.91
2023-02-27T18:02:16.967Z,80.11
2023-02-27T18:04:44.790Z,81.68
2023-02-27T18:07:12.517Z,80.62
2023-02-27T18:09:40.246Z,80.60
2023-02-27T18:12:08.027Z,80.90
2023-02-27T18:14:36.372Z,80.62
2023-02-27T18:17:06.853Z,81.10
2023-02-27T18:19:34.547Z,81.06
2023-02-27T18:22:02.203Z,81.70
2023-02-27T18:24:29.857Z,82.93
2023-02-27T18:26:57.724Z,83.95
2023-02-27T18:29:25.381Z,84.67
2023-02-27T18:31:54.808Z,84.09
2023-02-27T18:34:25.112Z,84.33
2023-02-27T18:36:52.891Z,86.09
2023-02-27T18:39:22.534Z,85.58
2023-02-27T18:41:50.194Z,85.52
2023-02-27T18:44:18.114Z,86.13
2023-02-27T18:46:46.028Z,87.23
2023-02-27T18:49:14.836Z,88.26
2023-02-27T18:51:44.037Z,89.71
2023-02-27T18:54:13.391Z,88.95
2023-02-27T18:56:41.112Z,89.03
2023-02-27T18:59:08.824Z,88.06
2023-02-27T19:01:38.104Z,88.48
2023-02-27T19:04:08.061Z,89.13
2023-02-27T19:06:38.901Z,90.38
2023-02-27T19:09:08.963Z,92.03
2023-02-27T19:11:37.956Z,91.02
2023-02-27T19:14:07.362Z,93.27
2023-02-27T19:16:35.878Z,93.52
2023-02-27T19:19:04.955Z,94.53
2023-02-27T19:21:33.765Z,95.88
2023-02-27T19:24:01.928Z,96.85
2023-02-27T19:26:33.486Z,96.33
2023-02-27T19:29:01.199Z,99.90
2023-02-27T19:31:29.041Z,100.00
2023-02-27T19:33:57.053Z,100.00
2023-02-27T19:36:26.720Z,100.00
2023-02-27T19:38:54.754Z,100.00
2023-02-27T19:41:22.750Z,100.00
2023-02-27T19:43:52.042Z,100.00
2023-02-27T19:46:23.843Z,100.00
2023-02-27T19:48:52.002Z,100.00
2023-02-27T19:51:21.090Z,100.00
2023-02-27T19:53:49.440Z,100.00
2023-02-27T19:56:18.644Z,100.00
2023-02-27T19:58:46.607Z,100.00
2023-02-27T20:01:21.566Z,100.00
2023-02-27T20:03:49.361Z,100.00
2023-02-27T20:06:18.487Z,100.00
2023-02-27T20:08:46.308Z,100.00
2023-02-27T20:11:15.593Z,100.00
2023-02-27T20:13:43.351Z,100.00
2023-02-27T20:16:13.399Z,100.00
2023-02-27T20:18:43.915Z,100.00
2023-02-27T20:21:14.749Z,100.00
2023-02-27T20:23:43.918Z,100.00
2023-02-27T20:26:16.771Z,100.00
2023-02-27T20:28:45.072Z,100.00
2023-02-27T20:31:13.959Z,100.00
2023-02-27T20:33:43.572Z,100.00
2023-02-27T20:36:12.507Z,100.00
2023-02-27T20:38:40.960Z,100.00
2023-02-27T20:41:09.508Z,100.00
2023-02-27T20:43:38.767Z,100.00
2023-02-27T20:46:07.760Z,100.00
2023-02-27T20:48:35.496Z,100.00
2023-02-27T20:51:09.211Z,100.00
2023-02-27T20:53:37.665Z,100.00
2023-02-27T20:56:06.126Z,100.00
2023-02-27T20:58:33.932Z,100.00
2023-02-27T21:01:04.213Z,100.00
2023-02-27T21:03:38.538Z,100.00
2023-02-27T21:06:09.276Z,100.00
2023-02-27T21:08:37.229Z,100.00
2023-02-27T21:11:09.538Z,100.00
2023-02-27T21:13:37.677Z,100.00
2023-02-27T21:16:06.448Z,100.00
2023-02-27T21:18:34.570Z,100.00
2023-02-27T21:21:04.186Z,100.00
2023-02-27T21:23:33.332Z,100.00
2023-02-27T21:26:01.118Z,100.00
2023-02-27T21:28:28.836Z,100.00
2023-02-27T21:30:56.582Z,100.00
2023-02-27T21:33:24.362Z,100.00
2023-02-27T21:35:52.109Z,100.00
2023-02-27T21:38:19.899Z,100.00
2023-02-27T21:40:48.940Z,100.00
2023-02-27T21:43:16.606Z,100.00
2023-02-27T21:45:47.523Z,100.00
2023-02-27T21:48:16.121Z,100.00
2023-02-27T21:50:43.924Z,100.00
2023-02-27T21:53:11.595Z,100.00
2023-02-27T21:55:39.263Z,100.00
2023-02-27T21:58:10.238Z,100.00
2023-02-27T22:00:38.060Z,100.00
2023-02-27T22:03:06.278Z,100.00
2023-02-27T22:05:33.960Z,100.00
2023-02-27T22:08:01.619Z,100.00
2023-02-27T22:10:29.342Z,100.00
2023-02-27T22:12:57.090Z,100.00
2023-02-27T22:15:26.097Z,100.00
2023-02-27T22:17:54.752Z,100.00
2023-02-27T22:20:22.453Z,100.00
2023-02-27T22:22:50.168Z,100.00
2023-02-27T22:25:17.900Z,100.00
2023-02-27T22:27:45.991Z,100.00
2023-02-27T22:30:14.725Z,100.00
2023-02-27T22:32:43.744Z,100.00
2023-02-27T22:35:11.459Z,100.00
2023-02-27T22:37:39.152Z,100.00
2023-02-27T22:40:08.218Z,100.00
2023-02-27T22:42:35.968Z,100.00
2023-02-27T22:45:03.736Z,100.00
2023-02-27T22:47:31.483Z,100.00
2023-02-27T22:50:00.486Z,100.00
2023-02-27T22:52:28.174Z,100.00
2023-02-27T22:54:56.070Z,100.00
2023-02-27T22:57:23.784Z,100.00
2023-02-27T22:59:51.512Z,100.00
2023-02-27T23:02:19.176Z,100.00
2023-02-27T23:04:46.897Z,100.00
2023-02-27T23:07:16.512Z,100.00
2023-02-27T23:09:44.808Z,100.00
2023-02-27T23:12:12.439Z,100.00
2023-02-27T23:14:40.187Z,100.00
2023-02-27T23:17:07.880Z,100.00
2023-02-27T23:19:36.524Z,100.00
2023-02-27T23:22:04.215Z,100.00
2023-02-27T23:24:33.298Z,100.00
2023-02-27T23:27:02.998Z,100.00
2023-02-27T23:29:30.920Z,100.00
2023-02-27T23:31:58.984Z,100.00
2023-02-27T23:34:26.778Z,100.00
2023-02-27T23:36:54.434Z,100.00
2023-02-27T23:39:22.424Z,100.00
2023-02-27T23:41:51.549Z,100.00
2023-02-27T23:44:25.004Z,100.00
2023-02-27T23:46:52.735Z,100.00
2023-02-27T23:49:20.585Z,100.00
2023-02-27T23:51:48.323Z,100.00
2023-02-27T23:54:16.062Z,100.00
2023-02-27T23:56:43.742Z,100.00
2023-02-27T23:59:12.751Z,100.00
